TFFF

Martinique Aimé Césaire International Airport

Fort-de-France, Martinique
TAF TFFF 251100Z 2512/2612 10012KT 9999 SCT020
Issued Valid From Valid To
Sep-25 @ 11:00 UTC
(6 hours ago)
Sep-25 @ 12:00 UTC
(5 hours ago)
Sep-26 @ 12:00 UTC
(in 19 hours)
Sep-25 @ 12:00 to Sep-26 @ 12:00
TAF TFFF 251100Z 2512/2612 10012KT 9999 SCT020
Wind Visibility Clouds
100° at 12 knots 10,000+ meters
  • Scattered at 2,000' AGL
TAF TFFF 251100Z 2512/2612 10012KT 9999 SCT020
Issued Sep-25 @ 11:00 UTC
(6 hours ago)
Valid From Sep-25 @ 12:00 UTC
(5 hours ago)
Valid To Sep-26 @ 12:00 UTC
(in 19 hours)
Sep-25 @ 12:00 - Sep-26 @ 12:00
Wind Visibility
100° at 12 knots 10,000+ meters
Clouds
  • Scattered at 2,000' AGL